sensor_id;sensor_type;location;lat;lon;timestamp;temperature;humidity
6429;DHT22;3247;48.946;10.220;2022-08-26T00:00:13;17.10;99.90
6429;DHT22;3247;48.946;10.220;2022-08-26T00:02:39;17.10;99.90
6429;DHT22;3247;48.946;10.220;2022-08-26T00:05:04;17.30;99.90
6429;DHT22;3247;48.946;10.220;2022-08-26T00:07:30;17.20;99.90
6429;DHT22;3247;48.946;10.220;2022-08-26T00:09:55;17.20;99.90
6429;DHT22;3247;48.946;10.220;2022-08-26T00:12:21;17.10;99.90
6429;DHT22;3247;48.946;10.220;2022-08-26T00:14:46;17.00;99.90
6429;DHT22;3247;48.946;10.220;2022-08-26T00:17:11;16.90;99.90
6429;DHT22;3247;48.946;10.220;2022-08-26T00:19:37;16.90;99.90
6429;DHT22;3247;48.946;10.220;2022-08-26T00:22:03;16.90;99.90
6429;DHT22;3247;48.946;10.220;2022-08-26T00:24:28;16.80;99.90
6429;DHT22;3247;48.946;10.220;2022-08-26T00:26:54;16.80;99.90
6429;DHT22;3247;48.946;10.220;2022-08-26T00:29:19;16.90;99.90
6429;DHT22;3247;48.946;10.220;2022-08-26T00:31:45;16.70;99.90
6429;DHT22;3247;48.946;10.220;2022-08-26T00:34:11;16.70;99.90
6429;DHT22;3247;48.946;10.220;2022-08-26T00:36:37;16.60;99.90
6429;DHT22;3247;48.946;10.220;2022-08-26T00:39:03;16.70;99.90
6429;DHT22;3247;48.946;10.220;2022-08-26T00:41:31;16.80;99.90
6429;DHT22;3247;48.946;10.220;2022-08-26T00:43:56;16.70;99.90
6429;DHT22;3247;48.946;10.220;2022-08-26T00:46:26;16.60;99.90
6429;DHT22;3247;48.946;10.220;2022-08-26T00:48:55;16.60;99.90
6429;DHT22;3247;48.946;10.220;2022-08-26T00:51:24;16.60;99.90
6429;DHT22;3247;48.946;10.220;2022-08-26T00:53:52;16.60;99.90
6429;DHT22;3247;48.946;10.220;2022-08-26T00:56:24;16.70;99.90
6429;DHT22;3247;48.946;10.220;2022-08-26T00:58:51;16.80;99.90
6429;DHT22;3247;48.946;10.220;2022-08-26T01:01:17;16.70;99.90
6429;DHT22;3247;48.946;10.220;2022-08-26T01:03:43;16.60;99.90
6429;DHT22;3247;48.946;10.220;2022-08-26T01:06:09;16.60;99.90
6429;DHT22;3247;48.946;10.220;2022-08-26T01:08:35;16.60;99.90
6429;DHT22;3247;48.946;10.220;2022-08-26T01:11:01;16.50;99.90
6429;DHT22;3247;48.946;10.220;2022-08-26T01:13:27;16.60;99.90
6429;DHT22;3247;48.946;10.220;2022-08-26T01:15:55;16.60;99.90
6429;DHT22;3247;48.946;10.220;2022-08-26T01:18:21;16.50;99.90
6429;DHT22;3247;48.946;10.220;2022-08-26T01:23:16;16.50;99.90
6429;DHT22;3247;48.946;10.220;2022-08-26T01:25:43;16.40;99.90
6429;DHT22;3247;48.946;10.220;2022-08-26T01:28:16;16.30;99.90
6429;DHT22;3247;48.946;10.220;2022-08-26T01:30:43;16.20;99.90
6429;DHT22;3247;48.946;10.220;2022-08-26T01:33:10;16.20;99.90
6429;DHT22;3247;48.946;10.220;2022-08-26T01:35:37;16.20;99.90
6429;DHT22;3247;48.946;10.220;2022-08-26T01:38:02;16.20;99.90
6429;DHT22;3247;48.946;10.220;2022-08-26T01:40:30;16.20;99.90
6429;DHT22;3247;48.946;10.220;2022-08-26T01:42:57;16.20;99.90
6429;DHT22;3247;48.946;10.220;2022-08-26T01:45:25;16.10;99.90
6429;DHT22;3247;48.946;10.220;2022-08-26T01:47:52;16.20;99.90
6429;DHT22;3247;48.946;10.220;2022-08-26T01:50:23;16.20;99.90
6429;DHT22;3247;48.946;10.220;2022-08-26T01:52:49;16.20;99.90
6429;DHT22;3247;48.946;10.220;2022-08-26T01:55:16;16.30;99.90
6429;DHT22;3247;48.946;10.220;2022-08-26T01:57:47;16.30;99.90
6429;DHT22;3247;48.946;10.220;2022-08-26T02:00:15;16.30;99.90
6429;DHT22;3247;48.946;10.220;2022-08-26T02:02:41;16.30;99.90
6429;DHT22;3247;48.946;10.220;2022-08-26T02:05:08;16.20;99.90
6429;DHT22;3247;48.946;10.220;2022-08-26T02:07:35;16.10;99.90
6429;DHT22;3247;48.946;10.220;2022-08-26T02:10:02;16.10;99.90
6429;DHT22;3247;48.946;10.220;2022-08-26T02:12:28;16.10;99.90
6429;DHT22;3247;48.946;10.220;2022-08-26T02:14:55;16.10;99.90
6429;DHT22;3247;48.946;10.220;2022-08-26T02:17:23;16.00;99.90
6429;DHT22;3247;48.946;10.220;2022-08-26T02:19:50;15.90;99.90
6429;DHT22;3247;48.946;10.220;2022-08-26T02:22:18;15.80;99.90
6429;DHT22;3247;48.946;10.220;2022-08-26T02:24:57;15.80;99.90
6429;DHT22;3247;48.946;10.220;2022-08-26T02:27:25;15.70;99.90
6429;DHT22;3247;48.946;10.220;2022-08-26T02:29:59;15.60;99.90
6429;DHT22;3247;48.946;10.220;2022-08-26T02:32:27;15.60;99.90
6429;DHT22;3247;48.946;10.220;2022-08-26T02:34:52;15.50;99.90
6429;DHT22;3247;48.946;10.220;2022-08-26T02:37:18;15.50;99.90
6429;DHT22;3247;48.946;10.220;2022-08-26T02:39:43;15.40;99.90
6429;DHT22;3247;48.946;10.220;2022-08-26T02:42:09;15.40;99.90
6429;DHT22;3247;48.946;10.220;2022-08-26T02:44:35;15.40;99.90
6429;DHT22;3247;48.946;10.220;2022-08-26T02:47:00;15.30;99.90
6429;DHT22;3247;48.946;10.220;2022-08-26T02:49:26;15.30;99.90
6429;DHT22;3247;48.946;10.220;2022-08-26T02:51:52;15.40;99.90
6429;DHT22;3247;48.946;10.220;2022-08-26T02:54:18;15.40;99.90
6429;DHT22;3247;48.946;10.220;2022-08-26T02:56:45;15.40;99.90
6429;DHT22;3247;48.946;10.220;2022-08-26T02:59:11;15.30;99.90
6429;DHT22;3247;48.946;10.220;2022-08-26T03:01:40;15.20;99.90
6429;DHT22;3247;48.946;10.220;2022-08-26T03:04:07;15.20;99.90
6429;DHT22;3247;48.946;10.220;2022-08-26T03:06:33;15.20;99.90
6429;DHT22;3247;48.946;10.220;2022-08-26T03:08:59;15.20;99.90
6429;DHT22;3247;48.946;10.220;2022-08-26T03:11:24;15.20;99.90
6429;DHT22;3247;48.946;10.220;2022-08-26T03:13:50;15.20;99.90
6429;DHT22;3247;48.946;10.220;2022-08-26T03:16:16;15.30;99.90
6429;DHT22;3247;48.946;10.220;2022-08-26T03:18:41;15.20;99.90
6429;DHT22;3247;48.946;10.220;2022-08-26T03:21:08;15.30;99.90
6429;DHT22;3247;48.946;10.220;2022-08-26T03:23:35;15.30;99.90
6429;DHT22;3247;48.946;10.220;2022-08-26T03:26:00;15.10;99.90
6429;DHT22;3247;48.946;10.220;2022-08-26T03:28:26;15.20;99.90
6429;DHT22;3247;48.946;10.220;2022-08-26T03:30:51;15.30;99.90
6429;DHT22;3247;48.946;10.220;2022-08-26T03:33:17;15.30;99.90
6429;DHT22;3247;48.946;10.220;2022-08-26T03:35:44;15.30;99.90
6429;DHT22;3247;48.946;10.220;2022-08-26T03:38:09;15.40;99.90
6429;DHT22;3247;48.946;10.220;2022-08-26T03:40:35;15.30;99.90
6429;DHT22;3247;48.946;10.220;2022-08-26T03:43:02;15.30;99.90
6429;DHT22;3247;48.946;10.220;2022-08-26T03:45:28;15.20;99.90
6429;DHT22;3247;48.946;10.220;2022-08-26T03:47:53;15.20;99.90
6429;DHT22;3247;48.946;10.220;2022-08-26T03:50:20;15.20;99.90
6429;DHT22;3247;48.946;10.220;2022-08-26T03:52:46;15.20;99.90
6429;DHT22;3247;48.946;10.220;2022-08-26T03:55:12;15.20;99.90
6429;DHT22;3247;48.946;10.220;2022-08-26T03:57:38;15.20;99.90
6429;DHT22;3247;48.946;10.220;2022-08-26T04:00:05;15.20;99.90
6429;DHT22;3247;48.946;10.220;2022-08-26T04:02:31;15.10;99.90
6429;DHT22;3247;48.946;10.220;2022-08-26T04:04:56;15.10;99.90
6429;DHT22;3247;48.946;10.220;2022-08-26T04:07:22;15.10;99.90
6429;DHT22;3247;48.946;10.220;2022-08-26T04:09:56;15.00;99.90
6429;DHT22;3247;48.946;10.220;2022-08-26T04:12:22;15.00;99.90
6429;DHT22;3247;48.946;10.220;2022-08-26T04:14:47;15.00;99.90
6429;DHT22;3247;48.946;10.220;2022-08-26T04:17:13;14.90;99.90
6429;DHT22;3247;48.946;10.220;2022-08-26T04:19:39;15.00;99.90
6429;DHT22;3247;48.946;10.220;2022-08-26T04:22:05;14.80;99.90
6429;DHT22;3247;48.946;10.220;2022-08-26T04:24:31;14.80;99.90
6429;DHT22;3247;48.946;10.220;2022-08-26T04:26:57;14.70;99.90
6429;DHT22;3247;48.946;10.220;2022-08-26T04:29:24;14.70;99.90
6429;DHT22;3247;48.946;10.220;2022-08-26T04:31:51;14.70;99.90
6429;DHT22;3247;48.946;10.220;2022-08-26T04:34:19;14.70;99.90
6429;DHT22;3247;48.946;10.220;2022-08-26T04:36:44;14.70;99.90
6429;DHT22;3247;48.946;10.220;2022-08-26T04:39:10;14.70;99.90
6429;DHT22;3247;48.946;10.220;2022-08-26T04:41:41;14.70;99.90
6429;DHT22;3247;48.946;10.220;2022-08-26T04:44:07;14.70;99.90
6429;DHT22;3247;48.946;10.220;2022-08-26T04:46:32;14.70;99.90
6429;DHT22;3247;48.946;10.220;2022-08-26T04:48:58;14.80;99.90
6429;DHT22;3247;48.946;10.220;2022-08-26T04:51:24;14.90;99.90
6429;DHT22;3247;48.946;10.220;2022-08-26T04:53:53;14.90;99.90
6429;DHT22;3247;48.946;10.220;2022-08-26T04:56:20;15.00;99.90
6429;DHT22;3247;48.946;10.220;2022-08-26T04:58:45;15.10;99.90
6429;DHT22;3247;48.946;10.220;2022-08-26T05:01:10;15.10;99.90
6429;DHT22;3247;48.946;10.220;2022-08-26T05:03:36;15.20;99.90
6429;DHT22;3247;48.946;10.220;2022-08-26T05:06:03;15.30;99.90
6429;DHT22;3247;48.946;10.220;2022-08-26T05:08:28;15.30;99.90
6429;DHT22;3247;48.946;10.220;2022-08-26T05:10:56;15.40;99.90
6429;DHT22;3247;48.946;10.220;2022-08-26T05:13:22;15.50;99.90
6429;DHT22;3247;48.946;10.220;2022-08-26T05:15:49;15.60;99.90
6429;DHT22;3247;48.946;10.220;2022-08-26T05:18:15;15.80;99.90
6429;DHT22;3247;48.946;10.220;2022-08-26T05:20:45;16.00;99.90
6429;DHT22;3247;48.946;10.220;2022-08-26T05:23:11;16.10;99.90
6429;DHT22;3247;48.946;10.220;2022-08-26T05:25:37;16.30;99.90
6429;DHT22;3247;48.946;10.220;2022-08-26T05:28:04;16.50;99.90
6429;DHT22;3247;48.946;10.220;2022-08-26T05:30:30;16.60;99.90
6429;DHT22;3247;48.946;10.220;2022-08-26T05:32:55;16.80;99.90
6429;DHT22;3247;48.946;10.220;2022-08-26T05:35:21;17.00;99.90
6429;DHT22;3247;48.946;10.220;2022-08-26T05:37:47;17.00;99.90
6429;DHT22;3247;48.946;10.220;2022-08-26T05:40:13;17.20;99.90
6429;DHT22;3247;48.946;10.220;2022-08-26T05:42:39;17.50;99.90
6429;DHT22;3247;48.946;10.220;2022-08-26T05:45:05;17.70;99.90
6429;DHT22;3247;48.946;10.220;2022-08-26T05:47:31;17.90;99.90
6429;DHT22;3247;48.946;10.220;2022-08-26T05:49:56;18.10;99.90
6429;DHT22;3247;48.946;10.220;2022-08-26T05:52:22;18.10;99.90
6429;DHT22;3247;48.946;10.220;2022-08-26T05:54:47;18.20;99.90
6429;DHT22;3247;48.946;10.220;2022-08-26T05:57:16;18.40;99.90
6429;DHT22;3247;48.946;10.220;2022-08-26T05:59:42;18.60;99.90
6429;DHT22;3247;48.946;10.220;2022-08-26T06:02:07;18.80;99.90
6429;DHT22;3247;48.946;10.220;2022-08-26T06:04:33;18.90;99.90
6429;DHT22;3247;48.946;10.220;2022-08-26T06:06:59;19.20;99.90
6429;DHT22;3247;48.946;10.220;2022-08-26T06:09:24;19.50;99.90
6429;DHT22;3247;48.946;10.220;2022-08-26T06:11:51;19.90;99.90
6429;DHT22;3247;48.946;10.220;2022-08-26T06:14:16;20.60;99.90
6429;DHT22;3247;48.946;10.220;2022-08-26T06:16:42;21.10;99.90
6429;DHT22;3247;48.946;10.220;2022-08-26T06:19:10;21.60;99.90
6429;DHT22;3247;48.946;10.220;2022-08-26T06:21:36;21.70;99.90
6429;DHT22;3247;48.946;10.220;2022-08-26T06:24:05;22.30;99.90
6429;DHT22;3247;48.946;10.220;2022-08-26T06:26:50;23.20;99.90
6429;DHT22;3247;48.946;10.220;2022-08-26T06:29:17;24.00;99.90
6429;DHT22;3247;48.946;10.220;2022-08-26T06:31:43;24.80;99.90
6429;DHT22;3247;48.946;10.220;2022-08-26T06:34:08;25.70;99.90
6429;DHT22;3247;48.946;10.220;2022-08-26T06:36:34;25.80;99.90
6429;DHT22;3247;48.946;10.220;2022-08-26T06:39:01;25.70;99.90
6429;DHT22;3247;48.946;10.220;2022-08-26T06:41:27;25.50;99.90
6429;DHT22;3247;48.946;10.220;2022-08-26T06:43:55;25.10;99.90
6429;DHT22;3247;48.946;10.220;2022-08-26T06:46:21;24.80;99.90
6429;DHT22;3247;48.946;10.220;2022-08-26T06:48:47;24.80;99.90
6429;DHT22;3247;48.946;10.220;2022-08-26T06:51:17;25.00;99.90
6429;DHT22;3247;48.946;10.220;2022-08-26T06:53:44;25.30;99.90
6429;DHT22;3247;48.946;10.220;2022-08-26T06:56:11;26.40;99.90
6429;DHT22;3247;48.946;10.220;2022-08-26T06:58:37;27.50;99.90
6429;DHT22;3247;48.946;10.220;2022-08-26T07:01:03;28.40;99.90
6429;DHT22;3247;48.946;10.220;2022-08-26T07:03:29;28.10;99.90
6429;DHT22;3247;48.946;10.220;2022-08-26T07:06:01;28.00;99.90
6429;DHT22;3247;48.946;10.220;2022-08-26T07:08:27;28.10;99.90
6429;DHT22;3247;48.946;10.220;2022-08-26T07:10:52;28.20;99.90
6429;DHT22;3247;48.946;10.220;2022-08-26T07:13:18;28.30;99.90
6429;DHT22;3247;48.946;10.220;2022-08-26T07:15:43;29.00;99.90
6429;DHT22;3247;48.946;10.220;2022-08-26T07:18:09;28.70;99.90
6429;DHT22;3247;48.946;10.220;2022-08-26T07:20:37;28.90;99.90
6429;DHT22;3247;48.946;10.220;2022-08-26T07:23:07;29.40;99.90
6429;DHT22;3247;48.946;10.220;2022-08-26T07:25:33;29.40;99.90
6429;DHT22;3247;48.946;10.220;2022-08-26T07:27:58;28.90;99.90
6429;DHT22;3247;48.946;10.220;2022-08-26T07:30:24;29.80;99.90
6429;DHT22;3247;48.946;10.220;2022-08-26T07:32:49;29.80;99.90
6429;DHT22;3247;48.946;10.220;2022-08-26T07:35:15;30.00;99.90
6429;DHT22;3247;48.946;10.220;2022-08-26T07:37:41;30.90;99.90
6429;DHT22;3247;48.946;10.220;2022-08-26T07:40:06;30.80;99.90
6429;DHT22;3247;48.946;10.220;2022-08-26T07:42:33;31.30;99.90
6429;DHT22;3247;48.946;10.220;2022-08-26T07:44:59;31.30;99.90
6429;DHT22;3247;48.946;10.220;2022-08-26T07:47:25;31.40;99.90
6429;DHT22;3247;48.946;10.220;2022-08-26T07:49:50;30.90;99.90
6429;DHT22;3247;48.946;10.220;2022-08-26T07:52:16;31.50;99.90
6429;DHT22;3247;48.946;10.220;2022-08-26T07:54:41;31.80;99.90
6429;DHT22;3247;48.946;10.220;2022-08-26T07:57:09;32.10;99.90
6429;DHT22;3247;48.946;10.220;2022-08-26T07:59:34;33.10;99.90
6429;DHT22;3247;48.946;10.220;2022-08-26T08:01:59;32.70;99.90
6429;DHT22;3247;48.946;10.220;2022-08-26T08:04:26;33.00;99.90
6429;DHT22;3247;48.946;10.220;2022-08-26T08:06:52;34.20;99.90
6429;DHT22;3247;48.946;10.220;2022-08-26T08:09:18;33.00;99.90
6429;DHT22;3247;48.946;10.220;2022-08-26T08:11:43;33.60;99.90
6429;DHT22;3247;48.946;10.220;2022-08-26T08:14:09;33.90;99.90
6429;DHT22;3247;48.946;10.220;2022-08-26T08:16:35;35.10;99.70
6429;DHT22;3247;48.946;10.220;2022-08-26T08:19:01;35.70;97.10
6429;DHT22;3247;48.946;10.220;2022-08-26T08:21:26;35.10;96.20
6429;DHT22;3247;48.946;10.220;2022-08-26T08:23:53;35.10;96.10
6429;DHT22;3247;48.946;10.220;2022-08-26T08:26:19;34.40;97.00
6429;DHT22;3247;48.946;10.220;2022-08-26T08:28:45;34.50;97.60
6429;DHT22;3247;48.946;10.220;2022-08-26T08:31:24;34.10;96.80
6429;DHT22;3247;48.946;10.220;2022-08-26T08:33:50;33.40;97.60
6429;DHT22;3247;48.946;10.220;2022-08-26T08:36:17;34.70;95.50
6429;DHT22;3247;48.946;10.220;2022-08-26T08:38:42;34.30;96.30
6429;DHT22;3247;48.946;10.220;2022-08-26T08:43:42;35.60;95.20
6429;DHT22;3247;48.946;10.220;2022-08-26T08:46:10;35.50;92.80
6429;DHT22;3247;48.946;10.220;2022-08-26T08:48:37;34.70;94.30
6429;DHT22;3247;48.946;10.220;2022-08-26T08:53:41;34.60;93.40
6429;DHT22;3247;48.946;10.220;2022-08-26T08:56:12;34.50;94.10
6429;DHT22;3247;48.946;10.220;2022-08-26T09:01:07;34.40;93.60
6429;DHT22;3247;48.946;10.220;2022-08-26T09:06:13;34.70;91.80
6429;DHT22;3247;48.946;10.220;2022-08-26T09:08:44;34.20;92.20
6429;DHT22;3247;48.946;10.220;2022-08-26T09:11:11;33.90;92.30
6429;DHT22;3247;48.946;10.220;2022-08-26T09:13:38;33.40;92.50
6429;DHT22;3247;48.946;10.220;2022-08-26T09:21:35;33.60;93.60
6429;DHT22;3247;48.946;10.220;2022-08-26T09:24:01;33.80;93.00
6429;DHT22;3247;48.946;10.220;2022-08-26T09:31:22;33.40;93.70
6429;DHT22;3247;48.946;10.220;2022-08-26T09:33:48;33.30;93.20
6429;DHT22;3247;48.946;10.220;2022-08-26T09:36:19;33.20;92.20
6429;DHT22;3247;48.946;10.220;2022-08-26T09:38:50;32.50;93.20
6429;DHT22;3247;48.946;10.220;2022-08-26T09:41:34;32.10;93.10
6429;DHT22;3247;48.946;10.220;2022-08-26T09:46:28;31.60;93.50
6429;DHT22;3247;48.946;10.220;2022-08-26T09:48:54;32.00;94.80
6429;DHT22;3247;48.946;10.220;2022-08-26T09:53:49;32.60;94.30
6429;DHT22;3247;48.946;10.220;2022-08-26T09:56:16;32.90;94.10
6429;DHT22;3247;48.946;10.220;2022-08-26T09:58:43;33.00;93.30
6429;DHT22;3247;48.946;10.220;2022-08-26T10:03:47;32.40;93.30
6429;DHT22;3247;48.946;10.220;2022-08-26T10:08:43;33.00;92.50
6429;DHT22;3247;48.946;10.220;2022-08-26T10:11:17;32.70;93.10
6429;DHT22;3247;48.946;10.220;2022-08-26T10:13:44;32.70;92.30
6429;DHT22;3247;48.946;10.220;2022-08-26T10:16:13;32.80;92.90
6429;DHT22;3247;48.946;10.220;2022-08-26T10:21:17;32.20;93.30
6429;DHT22;3247;48.946;10.220;2022-08-26T10:23:48;32.50;92.80
6429;DHT22;3247;48.946;10.220;2022-08-26T10:26:18;32.50;93.10
6429;DHT22;3247;48.946;10.220;2022-08-26T10:31:17;32.90;92.70
6429;DHT22;3247;48.946;10.220;2022-08-26T10:33:44;33.30;92.40
6429;DHT22;3247;48.946;10.220;2022-08-26T10:36:10;33.70;92.80
6429;DHT22;3247;48.946;10.220;2022-08-26T10:38:58;33.90;93.30
6429;DHT22;3247;48.946;10.220;2022-08-26T10:41:23;33.60;93.80
6429;DHT22;3247;48.946;10.220;2022-08-26T10:43:51;33.80;92.90
6429;DHT22;3247;48.946;10.220;2022-08-26T10:46:20;34.20;92.00
6429;DHT22;3247;48.946;10.220;2022-08-26T10:48:47;34.30;91.40
6429;DHT22;3247;48.946;10.220;2022-08-26T10:51:14;34.00;91.40
6429;DHT22;3247;48.946;10.220;2022-08-26T10:53:44;34.00;91.70
6429;DHT22;3247;48.946;10.220;2022-08-26T10:58:54;33.90;91.50
6429;DHT22;3247;48.946;10.220;2022-08-26T11:01:26;34.10;91.40
6429;DHT22;3247;48.946;10.220;2022-08-26T11:04:18;34.20;91.40
6429;DHT22;3247;48.946;10.220;2022-08-26T11:06:44;34.20;90.80
6429;DHT22;3247;48.946;10.220;2022-08-26T11:09:11;33.80;90.50
6429;DHT22;3247;48.946;10.220;2022-08-26T11:11:40;33.80;90.80
6429;DHT22;3247;48.946;10.220;2022-08-26T11:14:06;33.70;90.10
6429;DHT22;3247;48.946;10.220;2022-08-26T11:16:34;33.40;90.50
6429;DHT22;3247;48.946;10.220;2022-08-26T11:19:00;33.50;90.30
6429;DHT22;3247;48.946;10.220;2022-08-26T11:26:54;33.60;86.80
6429;DHT22;3247;48.946;10.220;2022-08-26T11:32:04;33.20;90.10
6429;DHT22;3247;48.946;10.220;2022-08-26T11:34:49;33.40;88.60
6429;DHT22;3247;48.946;10.220;2022-08-26T11:37:16;33.20;90.10
6429;DHT22;3247;48.946;10.220;2022-08-26T11:39:45;33.10;91.00
6429;DHT22;3247;48.946;10.220;2022-08-26T11:44:47;31.90;91.80
6429;DHT22;3247;48.946;10.220;2022-08-26T11:47:13;31.40;92.10
6429;DHT22;3247;48.946;10.220;2022-08-26T11:49:39;30.60;92.70
6429;DHT22;3247;48.946;10.220;2022-08-26T11:52:13;29.60;93.60
6429;DHT22;3247;48.946;10.220;2022-08-26T11:54:39;28.80;96.30
6429;DHT22;3247;48.946;10.220;2022-08-26T11:57:06;28.30;98.80
6429;DHT22;3247;48.946;10.220;2022-08-26T11:59:33;27.70;99.90
6429;DHT22;3247;48.946;10.220;2022-08-26T12:02:03;27.20;99.90
6429;DHT22;3247;48.946;10.220;2022-08-26T12:04:30;26.60;99.90
6429;DHT22;3247;48.946;10.220;2022-08-26T12:06:57;26.20;99.90
6429;DHT22;3247;48.946;10.220;2022-08-26T12:09:24;25.90;99.90
6429;DHT22;3247;48.946;10.220;2022-08-26T12:11:50;25.70;99.90
6429;DHT22;3247;48.946;10.220;2022-08-26T12:14:18;25.60;99.90
6429;DHT22;3247;48.946;10.220;2022-08-26T12:16:43;25.40;99.90
6429;DHT22;3247;48.946;10.220;2022-08-26T12:19:26;25.30;99.90
6429;DHT22;3247;48.946;10.220;2022-08-26T12:21:57;25.10;99.90
6429;DHT22;3247;48.946;10.220;2022-08-26T12:24:24;25.00;99.90
6429;DHT22;3247;48.946;10.220;2022-08-26T12:26:51;24.70;99.90
6429;DHT22;3247;48.946;10.220;2022-08-26T12:29:27;24.50;99.90
6429;DHT22;3247;48.946;10.220;2022-08-26T12:34:40;24.00;99.90
6429;DHT22;3247;48.946;10.220;2022-08-26T12:37:07;23.90;99.90
6429;DHT22;3247;48.946;10.220;2022-08-26T12:39:38;23.70;99.90
6429;DHT22;3247;48.946;10.220;2022-08-26T12:42:16;23.30;99.90
6429;DHT22;3247;48.946;10.220;2022-08-26T12:44:58;23.10;99.90
6429;DHT22;3247;48.946;10.220;2022-08-26T12:50:03;23.10;99.90
6429;DHT22;3247;48.946;10.220;2022-08-26T12:52:30;23.10;99.90
6429;DHT22;3247;48.946;10.220;2022-08-26T12:54:57;23.10;99.90
6429;DHT22;3247;48.946;10.220;2022-08-26T12:57:25;22.90;99.90
6429;DHT22;3247;48.946;10.220;2022-08-26T12:59:50;22.80;99.90
6429;DHT22;3247;48.946;10.220;2022-08-26T13:02:33;22.90;99.90
6429;DHT22;3247;48.946;10.220;2022-08-26T13:04:58;22.80;99.90
6429;DHT22;3247;48.946;10.220;2022-08-26T13:07:24;22.50;99.90
6429;DHT22;3247;48.946;10.220;2022-08-26T13:09:51;22.40;99.90
6429;DHT22;3247;48.946;10.220;2022-08-26T13:12:28;22.20;99.90
6429;DHT22;3247;48.946;10.220;2022-08-26T13:14:54;22.10;99.90
6429;DHT22;3247;48.946;10.220;2022-08-26T13:17:20;21.90;99.90
6429;DHT22;3247;48.946;10.220;2022-08-26T13:19:46;21.90;99.90
6429;DHT22;3247;48.946;10.220;2022-08-26T13:22:11;21.90;99.90
6429;DHT22;3247;48.946;10.220;2022-08-26T13:24:41;22.00;99.90
6429;DHT22;3247;48.946;10.220;2022-08-26T13:27:11;21.80;99.90
6429;DHT22;3247;48.946;10.220;2022-08-26T13:29:37;21.80;99.90
6429;DHT22;3247;48.946;10.220;2022-08-26T13:32:03;21.80;99.90
6429;DHT22;3247;48.946;10.220;2022-08-26T13:34:29;21.90;99.90
6429;DHT22;3247;48.946;10.220;2022-08-26T13:36:55;21.90;99.90
6429;DHT22;3247;48.946;10.220;2022-08-26T13:39:21;21.80;99.90
6429;DHT22;3247;48.946;10.220;2022-08-26T13:41:46;21.70;99.90
6429;DHT22;3247;48.946;10.220;2022-08-26T13:44:12;21.70;99.90
6429;DHT22;3247;48.946;10.220;2022-08-26T13:46:38;21.60;99.90
6429;DHT22;3247;48.946;10.220;2022-08-26T13:49:03;21.40;99.90
6429;DHT22;3247;48.946;10.220;2022-08-26T13:51:29;21.60;99.90
6429;DHT22;3247;48.946;10.220;2022-08-26T13:53:55;21.60;99.90
6429;DHT22;3247;48.946;10.220;2022-08-26T13:56:21;21.70;99.90
6429;DHT22;3247;48.946;10.220;2022-08-26T13:58:47;21.80;99.90
6429;DHT22;3247;48.946;10.220;2022-08-26T14:01:13;21.40;99.90
6429;DHT22;3247;48.946;10.220;2022-08-26T14:03:39;21.40;99.90
6429;DHT22;3247;48.946;10.220;2022-08-26T14:06:05;21.40;99.90
6429;DHT22;3247;48.946;10.220;2022-08-26T14:08:31;21.40;99.90
6429;DHT22;3247;48.946;10.220;2022-08-26T14:10:57;21.60;99.90
6429;DHT22;3247;48.946;10.220;2022-08-26T14:13:23;21.50;99.90
6429;DHT22;3247;48.946;10.220;2022-08-26T14:15:48;21.40;99.90
6429;DHT22;3247;48.946;10.220;2022-08-26T14:18:15;21.10;99.90
6429;DHT22;3247;48.946;10.220;2022-08-26T14:20:44;21.00;99.90
6429;DHT22;3247;48.946;10.220;2022-08-26T14:23:12;21.20;99.90
6429;DHT22;3247;48.946;10.220;2022-08-26T14:25:37;21.40;99.90
6429;DHT22;3247;48.946;10.220;2022-08-26T14:28:03;21.40;99.90
6429;DHT22;3247;48.946;10.220;2022-08-26T14:30:29;21.50;99.90
6429;DHT22;3247;48.946;10.220;2022-08-26T14:32:54;21.50;99.90
6429;DHT22;3247;48.946;10.220;2022-08-26T14:35:22;21.60;99.90
6429;DHT22;3247;48.946;10.220;2022-08-26T14:37:48;21.60;99.90
6429;DHT22;3247;48.946;10.220;2022-08-26T14:40:14;21.40;99.90
6429;DHT22;3247;48.946;10.220;2022-08-26T14:42:43;21.40;99.90
6429;DHT22;3247;48.946;10.220;2022-08-26T14:45:11;21.50;99.90
6429;DHT22;3247;48.946;10.220;2022-08-26T14:47:40;21.70;99.90
6429;DHT22;3247;48.946;10.220;2022-08-26T14:50:05;21.70;99.90
6429;DHT22;3247;48.946;10.220;2022-08-26T14:52:31;21.90;99.90
6429;DHT22;3247;48.946;10.220;2022-08-26T14:55:16;21.80;99.90
6429;DHT22;3247;48.946;10.220;2022-08-26T14:57:42;21.60;99.90
6429;DHT22;3247;48.946;10.220;2022-08-26T15:00:07;21.70;99.90
6429;DHT22;3247;48.946;10.220;2022-08-26T15:02:33;21.80;99.90
6429;DHT22;3247;48.946;10.220;2022-08-26T15:04:59;22.00;99.90
6429;DHT22;3247;48.946;10.220;2022-08-26T15:07:24;22.20;99.90
6429;DHT22;3247;48.946;10.220;2022-08-26T15:09:50;22.40;99.90
6429;DHT22;3247;48.946;10.220;2022-08-26T15:12:16;22.60;99.90
6429;DHT22;3247;48.946;10.220;2022-08-26T15:14:41;22.70;99.90
6429;DHT22;3247;48.946;10.220;2022-08-26T15:17:06;22.70;99.90
6429;DHT22;3247;48.946;10.220;2022-08-26T15:19:32;22.90;99.90
6429;DHT22;3247;48.946;10.220;2022-08-26T15:21:57;23.10;99.90
6429;DHT22;3247;48.946;10.220;2022-08-26T15:24:23;23.20;99.90
6429;DHT22;3247;48.946;10.220;2022-08-26T15:26:50;23.30;99.90
6429;DHT22;3247;48.946;10.220;2022-08-26T15:29:21;23.50;99.90
6429;DHT22;3247;48.946;10.220;2022-08-26T15:31:48;23.60;99.90
6429;DHT22;3247;48.946;10.220;2022-08-26T15:34:14;23.70;99.90
6429;DHT22;3247;48.946;10.220;2022-08-26T15:36:39;23.90;99.90
6429;DHT22;3247;48.946;10.220;2022-08-26T15:39:07;24.10;99.90
6429;DHT22;3247;48.946;10.220;2022-08-26T15:41:32;24.30;99.90
6429;DHT22;3247;48.946;10.220;2022-08-26T15:44:01;24.50;99.90
6429;DHT22;3247;48.946;10.220;2022-08-26T15:46:27;24.70;99.90
6429;DHT22;3247;48.946;10.220;2022-08-26T15:48:52;24.90;99.90
6429;DHT22;3247;48.946;10.220;2022-08-26T15:51:19;25.00;99.90
6429;DHT22;3247;48.946;10.220;2022-08-26T15:53:45;25.00;99.90
6429;DHT22;3247;48.946;10.220;2022-08-26T15:56:10;25.20;99.90
6429;DHT22;3247;48.946;10.220;2022-08-26T15:58:36;25.30;99.90
6429;DHT22;3247;48.946;10.220;2022-08-26T16:01:01;25.40;99.90
6429;DHT22;3247;48.946;10.220;2022-08-26T16:03:27;25.50;99.90
6429;DHT22;3247;48.946;10.220;2022-08-26T16:05:52;25.60;99.90
6429;DHT22;3247;48.946;10.220;2022-08-26T16:08:18;25.80;99.90
6429;DHT22;3247;48.946;10.220;2022-08-26T16:10:44;25.80;99.90
6429;DHT22;3247;48.946;10.220;2022-08-26T16:13:10;25.60;99.90
6429;DHT22;3247;48.946;10.220;2022-08-26T16:15:36;25.90;99.90
6429;DHT22;3247;48.946;10.220;2022-08-26T16:18:02;25.90;99.90
6429;DHT22;3247;48.946;10.220;2022-08-26T16:20:28;25.90;99.90
6429;DHT22;3247;48.946;10.220;2022-08-26T16:22:54;26.00;99.90
6429;DHT22;3247;48.946;10.220;2022-08-26T16:25:20;26.10;99.90
6429;DHT22;3247;48.946;10.220;2022-08-26T16:27:51;26.20;99.90
6429;DHT22;3247;48.946;10.220;2022-08-26T16:30:17;25.50;99.90
6429;DHT22;3247;48.946;10.220;2022-08-26T16:32:43;25.00;99.90
6429;DHT22;3247;48.946;10.220;2022-08-26T16:35:09;24.30;99.90
6429;DHT22;3247;48.946;10.220;2022-08-26T16:37:34;23.70;99.90
6429;DHT22;3247;48.946;10.220;2022-08-26T16:40:00;23.20;99.90